createdAt,value
2022-11-11T00:01:07.450Z,81.20
2022-11-11T00:04:50.148Z,81.83
2022-11-11T00:08:34.328Z,81.11
2022-11-11T00:12:19.004Z,80.56
2022-11-11T00:16:06.446Z,80.98
2022-11-11T00:20:06.677Z,80.78
2022-11-11T00:24:08.365Z,80.99
2022-11-11T00:27:51.116Z,80.47
2022-11-11T00:31:58.932Z,80.14
2022-11-11T00:35:57.257Z,79.96
2022-11-11T00:39:41.375Z,80.36
2022-11-11T00:43:24.049Z,80.47
2022-11-11T00:47:24.119Z,81.49
2022-11-11T00:51:06.984Z,81.99
2022-11-11T00:54:51.007Z,82.41
2022-11-11T00:58:33.675Z,82.68
2022-11-11T01:02:18.406Z,82.32
2022-11-11T01:06:02.034Z,82.50
2022-11-11T01:09:44.755Z,82.34
2022-11-11T01:13:30.736Z,82.28
2022-11-11T01:17:13.580Z,82.30
2022-11-11T01:21:01.028Z,82.65
2022-11-11T01:24:46.066Z,82.35
2022-11-11T01:28:30.196Z,81.76
2022-11-11T01:32:12.870Z,80.31
2022-11-11T01:35:57.756Z,80.55
2022-11-11T01:39:40.666Z,79.86
2022-11-11T01:43:25.191Z,79.52
2022-11-11T01:47:09.800Z,79.55
2022-11-11T01:50:51.725Z,79.79
2022-11-11T01:54:37.664Z,79.31
2022-11-11T01:58:20.754Z,79.93
2022-11-11T02:02:06.651Z,80.64
2022-11-11T02:05:55.692Z,80.32
2022-11-11T02:09:40.961Z,80.12
2022-11-11T02:13:41.349Z,80.83
2022-11-11T02:17:25.581Z,80.96
2022-11-11T02:21:10.527Z,80.54
2022-11-11T02:24:55.558Z,80.33
2022-11-11T02:28:38.773Z,81.05
2022-11-11T02:32:38.500Z,80.78
2022-11-11T02:36:21.332Z,80.43
2022-11-11T02:40:07.434Z,80.81
2022-11-11T02:43:50.384Z,80.89
2022-11-11T02:47:33.073Z,81.40
2022-11-11T02:51:15.816Z,81.70
2022-11-11T02:54:58.778Z,81.42
2022-11-11T02:58:46.096Z,80.98
2022-11-11T03:02:29.138Z,81.00
2022-11-11T03:06:11.916Z,81.20
2022-11-11T03:09:54.603Z,81.53
2022-11-11T03:13:37.472Z,81.67
2022-11-11T03:17:38.986Z,81.30
2022-11-11T03:25:39.359Z,81.27
2022-11-11T03:29:22.009Z,81.10
2022-11-11T03:33:06.546Z,80.76
2022-11-11T03:37:06.776Z,81.22
2022-11-11T03:40:50.012Z,81.26
2022-11-11T03:44:32.680Z,81.57
2022-11-11T03:48:17.429Z,81.90
2022-11-11T03:52:00.067Z,82.42
2022-11-11T03:55:43.197Z,82.17
2022-11-11T03:59:25.843Z,82.87
2022-11-11T04:03:28.491Z,82.87
2022-11-11T04:07:35.888Z,82.33
2022-11-11T04:11:24.048Z,83.03
2022-11-11T04:15:24.771Z,82.36
2022-11-11T04:19:25.151Z,82.69
2022-11-11T04:23:09.550Z,82.48
2022-11-11T04:26:52.209Z,82.65
2022-11-11T04:30:34.899Z,83.36
2022-11-11T04:34:17.591Z,83.85
2022-11-11T04:38:14.140Z,84.10
2022-11-11T04:42:13.382Z,84.05
2022-11-11T04:45:59.420Z,83.98
2022-11-11T04:49:42.140Z,83.86
2022-11-11T04:53:25.231Z,84.17
2022-11-11T04:57:08.614Z,84.03
2022-11-11T05:00:51.681Z,84.20
2022-11-11T05:04:33.320Z,84.13
2022-11-11T05:08:33.672Z,83.75
2022-11-11T05:12:17.675Z,83.53
2022-11-11T05:16:18.047Z,83.59
2022-11-11T05:20:18.543Z,83.15
2022-11-11T05:24:18.804Z,83.00
2022-11-11T05:28:02.792Z,82.83
2022-11-11T05:31:51.464Z,83.02
2022-11-11T05:35:36.538Z,83.89
2022-11-11T05:39:19.160Z,83.99
2022-11-11T05:43:03.192Z,83.62
2022-11-11T05:46:45.832Z,83.14
2022-11-11T05:50:28.490Z,83.23
2022-11-11T05:54:11.240Z,83.50
2022-11-11T05:57:53.834Z,83.37
2022-11-11T06:01:38.616Z,83.39
2022-11-11T06:05:21.348Z,82.72
2022-11-11T06:09:04.377Z,83.14
2022-11-11T06:13:00.994Z,83.38
2022-11-11T06:16:45.058Z,83.21
2022-11-11T06:20:28.066Z,97.68
2022-11-11T06:24:10.731Z,100.00
2022-11-11T06:27:53.385Z,100.00
2022-11-11T06:31:36.108Z,91.90
2022-11-11T06:35:20.193Z,88.06
2022-11-11T06:39:02.880Z,86.01
2022-11-11T06:42:45.515Z,85.58
2022-11-11T06:46:28.287Z,84.86
2022-11-11T06:50:11.258Z,84.88
2022-11-11T06:53:55.380Z,84.24
2022-11-11T06:57:38.219Z,83.58
2022-11-11T07:01:20.912Z,83.18
2022-11-11T07:05:03.703Z,84.21
2022-11-11T07:08:46.357Z,85.27
2022-11-11T07:12:30.646Z,84.76
2022-11-11T07:16:13.407Z,84.04
2022-11-11T07:19:56.364Z,82.96
2022-11-11T07:23:41.983Z,82.35
2022-11-11T07:27:24.825Z,82.70
2022-11-11T07:31:08.852Z,82.47
2022-11-11T07:34:51.562Z,82.33
2022-11-11T07:38:34.268Z,82.10
2022-11-11T07:42:31.040Z,82.35
2022-11-11T07:46:16.026Z,82.08
2022-11-11T07:50:03.112Z,82.50
2022-11-11T07:53:49.997Z,82.25
2022-11-11T07:57:33.129Z,82.28
2022-11-11T08:01:17.264Z,82.57
2022-11-11T08:05:00.053Z,81.95
2022-11-11T08:08:42.808Z,82.17
2022-11-11T08:12:42.935Z,82.15
2022-11-11T08:16:27.011Z,82.13
2022-11-11T08:20:13.757Z,82.13
2022-11-11T08:27:59.428Z,81.95
2022-11-11T08:31:43.669Z,81.86
2022-11-11T08:35:27.057Z,82.05
2022-11-11T08:39:09.745Z,80.84
2022-11-11T08:42:52.420Z,80.77
2022-11-11T08:46:35.134Z,81.24
2022-11-11T08:50:19.441Z,80.67
2022-11-11T08:54:02.137Z,79.78
2022-11-11T08:57:45.034Z,80.39
2022-11-11T09:01:27.737Z,78.67
2022-11-11T09:05:10.814Z,78.32
2022-11-11T09:08:54.882Z,78.44
2022-11-11T09:12:37.587Z,77.46
2022-11-11T09:16:20.328Z,77.63
2022-11-11T09:20:45.879Z,77.18
2022-11-11T09:24:29.903Z,75.94
2022-11-11T09:28:13.148Z,74.04
2022-11-11T09:31:55.862Z,74.01
2022-11-11T09:35:38.826Z,73.60
2022-11-11T09:39:21.611Z,73.43
2022-11-11T09:43:11.561Z,72.46
2022-11-11T09:46:59.524Z,71.32
2022-11-11T09:50:43.008Z,70.58
2022-11-11T09:54:32.225Z,70.26
2022-11-11T09:58:20.413Z,69.90
2022-11-11T10:02:03.531Z,69.29
2022-11-11T10:05:59.345Z,68.85
2022-11-11T10:09:46.524Z,68.90
2022-11-11T10:13:32.564Z,69.13
2022-11-11T10:17:20.138Z,69.10
2022-11-11T10:21:07.018Z,68.63
2022-11-11T10:24:58.909Z,68.37
2022-11-11T10:28:44.723Z,67.69
2022-11-11T10:32:28.848Z,67.34
2022-11-11T10:36:17.389Z,66.88
2022-11-11T10:40:09.394Z,66.25
2022-11-11T10:43:54.193Z,65.29
2022-11-11T10:47:45.867Z,64.79
2022-11-11T10:51:31.995Z,64.51
2022-11-11T10:55:19.509Z,63.20
2022-11-11T10:59:10.598Z,63.44
2022-11-11T11:02:59.450Z,63.57
2022-11-11T11:06:45.406Z,63.92
2022-11-11T11:10:31.332Z,64.14
2022-11-11T11:14:18.918Z,64.53
2022-11-11T11:18:06.189Z,62.80
2022-11-11T11:21:53.596Z,62.24
2022-11-11T11:25:36.237Z,61.81
2022-11-11T11:29:29.757Z,60.36
2022-11-11T11:33:12.441Z,60.09
2022-11-11T11:37:01.082Z,60.15
2022-11-11T11:40:51.525Z,60.37
2022-11-11T11:44:36.955Z,60.51
2022-11-11T11:48:32.317Z,60.68
2022-11-11T11:52:20.502Z,60.98
2022-11-11T11:56:12.131Z,59.19
2022-11-11T12:00:00.735Z,59.64
2022-11-11T12:03:56.549Z,59.83
2022-11-11T12:07:57.417Z,60.34
2022-11-11T12:11:43.861Z,59.27
2022-11-11T12:15:34.788Z,59.15
2022-11-11T12:19:31.430Z,59.16
2022-11-11T12:23:40.077Z,59.11
2022-11-11T12:27:28.601Z,58.97
2022-11-11T12:31:26.293Z,59.54
2022-11-11T12:35:26.585Z,60.10
2022-11-11T12:39:24.269Z,60.78
2022-11-11T12:43:14.911Z,59.85
2022-11-11T12:47:21.281Z,60.88
2022-11-11T12:51:12.069Z,59.01
2022-11-11T12:55:03.638Z,57.22
2022-11-11T12:58:50.366Z,57.73
2022-11-11T13:02:54.160Z,57.02
2022-11-11T13:06:54.343Z,57.33
2022-11-11T13:10:45.817Z,57.65
2022-11-11T13:14:42.199Z,57.75
2022-11-11T13:18:28.737Z,57.47
2022-11-11T13:22:18.609Z,57.99
2022-11-11T13:26:05.978Z,57.87
2022-11-11T13:30:07.528Z,57.98
2022-11-11T13:33:53.082Z,59.14
2022-11-11T13:37:36.266Z,59.21
2022-11-11T13:41:25.475Z,60.17
2022-11-11T13:45:09.973Z,60.82
2022-11-11T13:48:54.127Z,60.86
2022-11-11T13:52:37.842Z,60.29
2022-11-11T13:56:26.027Z,60.96
2022-11-11T14:00:25.983Z,61.47
2022-11-11T14:04:10.865Z,61.52
2022-11-11T14:07:57.712Z,61.34
2022-11-11T14:11:40.462Z,63.93
2022-11-11T14:15:38.241Z,62.51
2022-11-11T14:19:32.811Z,63.06
2022-11-11T14:23:33.838Z,63.17
2022-11-11T14:27:18.447Z,61.86
2022-11-11T14:31:32.429Z,61.04
2022-11-11T14:35:22.489Z,60.67
2022-11-11T14:39:14.500Z,60.44
2022-11-11T14:42:57.316Z,60.35
2022-11-11T14:47:19.077Z,60.50
2022-11-11T14:51:03.244Z,60.41
2022-11-11T14:54:54.344Z,60.23
2022-11-11T14:58:37.089Z,60.17
2022-11-11T15:02:32.184Z,60.25
2022-11-11T15:06:19.858Z,60.92
2022-11-11T15:10:28.395Z,61.91
2022-11-11T15:14:22.566Z,62.55
2022-11-11T15:18:10.371Z,62.88
2022-11-11T15:22:03.496Z,63.85
2022-11-11T15:25:51.296Z,64.10
2022-11-11T15:29:50.938Z,64.49
2022-11-11T15:33:45.899Z,64.44
2022-11-11T15:37:30.984Z,64.56
2022-11-11T15:41:28.377Z,65.18
2022-11-11T15:45:21.414Z,65.87
2022-11-11T15:49:04.619Z,66.71
2022-11-11T15:52:55.684Z,67.55
2022-11-11T15:56:39.328Z,68.09
2022-11-11T16:00:32.923Z,69.13
2022-11-11T16:04:53.982Z,69.73
2022-11-11T16:08:27.434Z,70.79
2022-11-11T16:12:11.830Z,71.58
2022-11-11T16:16:07.499Z,72.07
2022-11-11T16:19:50.938Z,72.38
2022-11-11T16:23:35.862Z,73.33
2022-11-11T16:27:20.896Z,76.14
2022-11-11T16:31:21.991Z,78.39
2022-11-11T16:35:24.356Z,80.12
2022-11-11T16:39:21.440Z,80.73
2022-11-11T16:43:22.973Z,80.32
2022-11-11T16:47:07.593Z,78.68
2022-11-11T16:50:55.509Z,78.70
2022-11-11T16:54:41.972Z,78.70
2022-11-11T16:58:24.726Z,77.72
2022-11-11T17:02:16.421Z,76.53
2022-11-11T17:06:00.653Z,76.03
2022-11-11T17:09:44.670Z,76.15
2022-11-11T17:13:28.075Z,76.75
2022-11-11T17:17:11.842Z,77.68
2022-11-11T17:20:54.803Z,78.37
2022-11-11T17:24:37.642Z,78.93
2022-11-11T17:28:22.400Z,78.24
2022-11-11T17:32:05.336Z,78.47
2022-11-11T17:35:52.228Z,79.00
2022-11-11T17:39:34.895Z,80.12
2022-11-11T17:43:17.812Z,79.38
2022-11-11T17:47:01.804Z,80.35
2022-11-11T17:50:44.639Z,81.20
2022-11-11T17:54:28.422Z,82.20
2022-11-11T17:58:13.487Z,82.60
2022-11-11T18:01:56.434Z,83.90
2022-11-11T18:05:40.484Z,86.43
2022-11-11T18:09:23.615Z,84.52
2022-11-11T18:13:06.560Z,84.15
2022-11-11T18:16:49.284Z,83.58
2022-11-11T18:20:32.014Z,83.39
2022-11-11T18:24:31.735Z,82.66
2022-11-11T18:28:14.460Z,81.74
2022-11-11T18:32:00.114Z,81.99
2022-11-11T18:35:45.071Z,82.01
2022-11-11T18:39:38.455Z,81.50
2022-11-11T18:43:21.155Z,82.27
2022-11-11T18:47:03.970Z,82.67
2022-11-11T18:50:54.237Z,83.18
2022-11-11T18:54:41.261Z,83.23
2022-11-11T18:58:23.899Z,82.80
2022-11-11T19:02:06.811Z,82.19
2022-11-11T19:05:49.495Z,82.23
2022-11-11T19:09:47.673Z,81.56
2022-11-11T19:13:32.166Z,81.07
2022-11-11T19:17:15.424Z,80.81
2022-11-11T19:20:58.083Z,83.25
2022-11-11T19:24:58.662Z,83.45
2022-11-11T19:28:43.363Z,82.20
2022-11-11T19:32:26.079Z,81.22
2022-11-11T19:36:11.070Z,80.01
2022-11-11T19:40:11.787Z,80.05
2022-11-11T19:43:56.457Z,81.66
2022-11-11T19:47:39.248Z,82.15
2022-11-11T19:51:24.941Z,83.51
2022-11-11T19:55:08.146Z,83.11
2022-11-11T19:58:50.847Z,83.86
2022-11-11T20:02:34.890Z,81.80
2022-11-11T20:06:22.642Z,82.20
2022-11-11T20:10:16.743Z,82.38
2022-11-11T20:14:00.050Z,82.66
2022-11-11T20:17:44.179Z,82.69
2022-11-11T20:21:27.409Z,83.34
2022-11-11T20:25:13.828Z,83.21
2022-11-11T20:28:57.444Z,83.75
2022-11-11T20:32:40.871Z,83.87
2022-11-11T20:36:25.203Z,83.79
2022-11-11T20:40:22.853Z,83.09
2022-11-11T20:44:05.718Z,84.35
2022-11-11T20:47:48.400Z,84.76
2022-11-11T20:51:32.420Z,85.63
2022-11-11T20:55:29.949Z,86.71
2022-11-11T20:59:13.164Z,86.43
2022-11-11T21:02:56.085Z,85.99
2022-11-11T21:06:40.184Z,85.96
2022-11-11T21:10:43.368Z,85.97
2022-11-11T21:14:26.308Z,86.87
2022-11-11T21:18:09.019Z,92.18
2022-11-11T21:21:53.139Z,93.28
2022-11-11T21:25:45.457Z,89.42
2022-11-11T21:29:28.174Z,89.15
2022-11-11T21:33:11.924Z,88.17
2022-11-11T21:36:55.919Z,89.21
2022-11-11T21:41:03.497Z,86.48
2022-11-11T21:44:46.510Z,84.11
2022-11-11T21:48:30.008Z,84.36
2022-11-11T21:52:14.337Z,85.56
2022-11-11T21:56:02.027Z,85.46
2022-11-11T21:59:44.713Z,85.63
2022-11-11T22:03:27.496Z,84.36
2022-11-11T22:07:12.044Z,85.39
2022-11-11T22:11:13.822Z,85.80
2022-11-11T22:14:56.486Z,86.33
2022-11-11T22:18:44.239Z,87.31
2022-11-11T22:22:30.328Z,88.29
2022-11-11T22:26:22.578Z,88.21
2022-11-11T22:30:06.048Z,86.98
2022-11-11T22:33:48.962Z,87.43
2022-11-11T22:37:31.595Z,87.16
2022-11-11T22:41:29.039Z,87.27
2022-11-11T22:45:12.016Z,86.07
2022-11-11T22:48:56.040Z,85.39
2022-11-11T22:52:38.728Z,85.03
2022-11-11T22:56:29.765Z,85.04
2022-11-11T23:00:14.661Z,84.65
2022-11-11T23:03:58.894Z,84.80
2022-11-11T23:07:41.558Z,84.46
2022-11-11T23:11:34.582Z,84.47
2022-11-11T23:15:20.061Z,84.82
2022-11-11T23:19:07.402Z,85.05
2022-11-11T23:22:50.099Z,85.63
2022-11-11T23:26:39.966Z,86.11
2022-11-11T23:30:22.643Z,84.66
2022-11-11T23:34:08.873Z,86.06
2022-11-11T23:37:51.541Z,85.68
2022-11-11T23:45:46.793Z,85.79
2022-11-11T23:49:29.415Z,85.89
2022-11-11T23:53:12.352Z,84.63
2022-11-11T23:56:54.965Z,84.10
